sensor_id;sensor_type;location;lat;lon;timestamp;pressure;altitude;pressure_sealevel;temperature;humidity
35989;BME280;22064;42.672;23.282;2023-04-08T00:00:11;94731.66;;;4.16;100.00
35989;BME280;22064;42.672;23.282;2023-04-08T00:02:39;94739.59;;;4.21;100.00
35989;BME280;22064;42.672;23.282;2023-04-08T00:05:05;94721.34;;;4.16;100.00
35989;BME280;22064;42.672;23.282;2023-04-08T00:07:31;94731.66;;;4.23;100.00
35989;BME280;22064;42.672;23.282;2023-04-08T00:09:57;94736.22;;;4.27;100.00
35989;BME280;22064;42.672;23.282;2023-04-08T00:12:24;94742.16;;;4.34;100.00
35989;BME280;22064;42.672;23.282;2023-04-08T00:14:49;94737.41;;;4.25;100.00
35989;BME280;22064;42.672;23.282;2023-04-08T00:17:15;94733.66;;;4.27;100.00
35989;BME280;22064;42.672;23.282;2023-04-08T00:19:42;94726.50;;;4.23;100.00
35989;BME280;22064;42.672;23.282;2023-04-08T00:22:09;94734.44;;;4.28;100.00
35989;BME280;22064;42.672;23.282;2023-04-08T00:24:36;94734.44;;;4.28;100.00
35989;BME280;22064;42.672;23.282;2023-04-08T00:27:02;94723.34;;;4.34;100.00
35989;BME280;22064;42.672;23.282;2023-04-08T00:29:28;94737.97;;;4.53;100.00
35989;BME280;22064;42.672;23.282;2023-04-08T00:31:54;94722.09;;;4.56;100.00
35989;BME280;22064;42.672;23.282;2023-04-08T00:34:22;94730.03;;;4.55;100.00
35989;BME280;22064;42.672;23.282;2023-04-08T00:36:48;94730.22;;;4.60;100.00
35989;BME280;22064;42.672;23.282;2023-04-08T00:39:14;94729.19;;;4.74;100.00
35989;BME280;22064;42.672;23.282;2023-04-08T00:41:41;94733.72;;;4.85;100.00
35989;BME280;22064;42.672;23.282;2023-04-08T00:44:07;94738.25;;;4.97;100.00
35989;BME280;22064;42.672;23.282;2023-04-08T00:46:36;94729.47;;;5.11;100.00
35989;BME280;22064;42.672;23.282;2023-04-08T00:49:04;94733.97;;;5.22;100.00
35989;BME280;22064;42.672;23.282;2023-04-08T00:51:32;94718.06;;;5.25;100.00
35989;BME280;22064;42.672;23.282;2023-04-08T00:54:01;94726.16;;;5.36;100.00
35989;BME280;22064;42.672;23.282;2023-04-08T00:56:30;94735.66;;;5.48;100.00
35989;BME280;22064;42.672;23.282;2023-04-08T00:58:59;94729.06;;;5.52;100.00
35989;BME280;22064;42.672;23.282;2023-04-08T01:01:41;94739.56;;;5.51;100.00
35989;BME280;22064;42.672;23.282;2023-04-08T01:07:00;94741.69;;;5.67;100.00
35989;BME280;22064;42.672;23.282;2023-04-08T01:09:31;94740.09;;;5.66;100.00
35989;BME280;22064;42.672;23.282;2023-04-08T01:12:00;94744.97;;;5.49;100.00
35989;BME280;22064;42.672;23.282;2023-04-08T01:14:29;94742.28;;;5.63;100.00
35989;BME280;22064;42.672;23.282;2023-04-08T01:16:57;94743.09;;;5.63;100.00
35989;BME280;22064;42.672;23.282;2023-04-08T01:19:32;94743.84;;;5.70;100.00
35989;BME280;22064;42.672;23.282;2023-04-08T01:22:57;94743.59;;;5.78;100.00
35989;BME280;22064;42.672;23.282;2023-04-08T01:25:00;94743.81;;;5.77;100.00
35989;BME280;22064;42.672;23.282;2023-04-08T01:27:30;94739.97;;;5.86;100.00
35989;BME280;22064;42.672;23.282;2023-04-08T01:29:57;94741.38;;;5.82;100.00
35989;BME280;22064;42.672;23.282;2023-04-08T01:32:25;94736.63;;;5.79;100.00
35989;BME280;22064;42.672;23.282;2023-04-08T01:34:54;94741.00;;;5.78;100.00
35989;BME280;22064;42.672;23.282;2023-04-08T01:37:22;94738.22;;;5.80;100.00
35989;BME280;22064;42.672;23.282;2023-04-08T01:39:54;94742.88;;;5.65;100.00
35989;BME280;22064;42.672;23.282;2023-04-08T01:42:25;94738.34;;;5.60;100.00
35989;BME280;22064;42.672;23.282;2023-04-08T01:44:55;94744.31;;;5.54;100.00
35989;BME280;22064;42.672;23.282;2023-04-08T01:47:22;94746.09;;;5.22;100.00
35989;BME280;22064;42.672;23.282;2023-04-08T01:49:51;94743.47;;;4.83;100.00
35989;BME280;22064;42.672;23.282;2023-04-08T01:52:19;94746.84;;;4.64;100.00
35989;BME280;22064;42.672;23.282;2023-04-08T01:54:46;94738.75;;;4.54;100.00
35989;BME280;22064;42.672;23.282;2023-04-08T01:57:18;94756.38;;;4.77;100.00
35989;BME280;22064;42.672;23.282;2023-04-08T01:59:49;94752.66;;;4.46;100.00
35989;BME280;22064;42.672;23.282;2023-04-08T02:02:19;94756.25;;;4.25;100.00
35989;BME280;22064;42.672;23.282;2023-04-08T02:04:45;94750.69;;;4.02;100.00
35989;BME280;22064;42.672;23.282;2023-04-08T02:07:11;94763.00;;;3.93;100.00
35989;BME280;22064;42.672;23.282;2023-04-08T02:09:38;94766.72;;;3.70;100.00
35989;BME280;22064;42.672;23.282;2023-04-08T02:12:04;94770.06;;;3.64;100.00
35989;BME280;22064;42.672;23.282;2023-04-08T02:14:30;94763.94;;;3.65;100.00
35989;BME280;22064;42.672;23.282;2023-04-08T02:19:52;94778.59;;;3.65;100.00
35989;BME280;22064;42.672;23.282;2023-04-08T02:22:30;94772.47;;;3.73;100.00
35989;BME280;22064;42.672;23.282;2023-04-08T02:25:00;94762.16;;;3.79;100.00
35989;BME280;22064;42.672;23.282;2023-04-08T02:27:28;94772.63;;;3.64;100.00
35989;BME280;22064;42.672;23.282;2023-04-08T02:29:56;94769.06;;;3.52;100.00
35989;BME280;22064;42.672;23.282;2023-04-08T02:32:23;94763.50;;;3.48;100.00
35989;BME280;22064;42.672;23.282;2023-04-08T02:34:51;94773.63;;;3.57;100.00
35989;BME280;22064;42.672;23.282;2023-04-08T02:37:18;94763.09;;;3.52;100.00
35989;BME280;22064;42.672;23.282;2023-04-08T02:39:44;94772.81;;;3.43;100.00
35989;BME280;22064;42.672;23.282;2023-04-08T02:42:11;94764.09;;;3.51;100.00
35989;BME280;22064;42.672;23.282;2023-04-08T02:44:37;94774.41;;;3.51;100.00
35989;BME280;22064;42.672;23.282;2023-04-08T02:47:02;94760.72;;;3.43;100.00
35989;BME280;22064;42.672;23.282;2023-04-08T02:49:28;94766.66;;;3.37;100.00
35989;BME280;22064;42.672;23.282;2023-04-08T02:51:56;94761.13;;;3.40;100.00
35989;BME280;22064;42.672;23.282;2023-04-08T02:54:22;94766.66;;;3.44;100.00
35989;BME280;22064;42.672;23.282;2023-04-08T02:56:49;94758.97;;;3.51;100.00
35989;BME280;22064;42.672;23.282;2023-04-08T02:59:15;94774.44;;;3.64;100.00
35989;BME280;22064;42.672;23.282;2023-04-08T03:01:41;94767.31;;;3.66;100.00
35989;BME280;22064;42.672;23.282;2023-04-08T03:04:07;94777.59;;;3.53;100.00
35989;BME280;22064;42.672;23.282;2023-04-08T03:06:33;94776.59;;;3.60;100.00
35989;BME280;22064;42.672;23.282;2023-04-08T03:08:59;94773.84;;;3.62;100.00
35989;BME280;22064;42.672;23.282;2023-04-08T03:11:25;94770.88;;;3.65;100.00
35989;BME280;22064;42.672;23.282;2023-04-08T03:13:51;94771.50;;;3.80;100.00
35989;BME280;22064;42.672;23.282;2023-04-08T03:16:17;94746.09;;;3.57;100.00
35989;BME280;22064;42.672;23.282;2023-04-08T03:18:43;94769.91;;;3.86;100.00
35989;BME280;22064;42.672;23.282;2023-04-08T03:21:09;94758.59;;;3.67;100.00
35989;BME280;22064;42.672;23.282;2023-04-08T03:23:35;94767.50;;;3.64;100.00
35989;BME280;22064;42.672;23.282;2023-04-08T03:26:01;94764.72;;;3.59;100.00
35989;BME280;22064;42.672;23.282;2023-04-08T03:28:27;94772.44;;;3.59;100.00
35989;BME280;22064;42.672;23.282;2023-04-08T03:30:53;94772.84;;;3.63;100.00
35989;BME280;22064;42.672;23.282;2023-04-08T03:33:18;94770.91;;;3.78;100.00
35989;BME280;22064;42.672;23.282;2023-04-08T03:35:44;94777.66;;;4.06;100.00
35989;BME280;22064;42.672;23.282;2023-04-08T03:38:10;94778.84;;;3.97;100.00
35989;BME280;22064;42.672;23.282;2023-04-08T03:40:36;94778.63;;;3.98;100.00
35989;BME280;22064;42.672;23.282;2023-04-08T03:43:02;94770.91;;;3.98;100.00
35989;BME280;22064;42.672;23.282;2023-04-08T03:45:30;94772.50;;;3.92;100.00
35989;BME280;22064;42.672;23.282;2023-04-08T03:47:56;94765.75;;;3.85;100.00
35989;BME280;22064;42.672;23.282;2023-04-08T03:50:22;94778.44;;;3.93;100.00
35989;BME280;22064;42.672;23.282;2023-04-08T03:52:48;94776.84;;;3.92;100.00
35989;BME280;22064;42.672;23.282;2023-04-08T03:55:14;94778.06;;;4.03;100.00
35989;BME280;22064;42.672;23.282;2023-04-08T03:57:40;94770.91;;;3.98;100.00
35989;BME280;22064;42.672;23.282;2023-04-08T04:00:07;94773.91;;;4.08;100.00
35989;BME280;22064;42.672;23.282;2023-04-08T04:02:37;94769.72;;;3.94;100.00
35989;BME280;22064;42.672;23.282;2023-04-08T04:05:04;94778.44;;;3.93;100.00
35989;BME280;22064;42.672;23.282;2023-04-08T04:07:30;94769.94;;;3.92;100.00
35989;BME280;22064;42.672;23.282;2023-04-08T04:09:56;94771.50;;;3.87;100.00
35989;BME280;22064;42.672;23.282;2023-04-08T04:12:23;94767.72;;;3.83;100.00
35989;BME280;22064;42.672;23.282;2023-04-08T04:14:48;94768.53;;;3.83;100.00
35989;BME280;22064;42.672;23.282;2023-04-08T04:17:15;94780.03;;;3.81;100.00
35989;BME280;22064;42.672;23.282;2023-04-08T04:19:41;94780.19;;;3.73;100.00
35989;BME280;22064;42.672;23.282;2023-04-08T04:22:07;94776.81;;;3.65;100.00
35989;BME280;22064;42.672;23.282;2023-04-08T04:24:33;94780.59;;;3.69;100.00
35989;BME280;22064;42.672;23.282;2023-04-08T04:26:58;94776.81;;;3.65;100.00
35989;BME280;22064;42.672;23.282;2023-04-08T04:29:24;94776.81;;;3.59;100.00
35989;BME280;22064;42.672;23.282;2023-04-08T04:31:50;94784.34;;;3.67;100.00
35989;BME280;22064;42.672;23.282;2023-04-08T04:34:16;94786.34;;;3.72;100.00
35989;BME280;22064;42.672;23.282;2023-04-08T04:36:42;94782.78;;;3.73;100.00
35989;BME280;22064;42.672;23.282;2023-04-08T04:39:08;94787.53;;;3.76;100.00
35989;BME280;22064;42.672;23.282;2023-04-08T04:41:34;94769.09;;;3.65;100.00
35989;BME280;22064;42.672;23.282;2023-04-08T04:44:05;94783.75;;;3.72;100.00
35989;BME280;22064;42.672;23.282;2023-04-08T04:46:31;94793.63;;;3.61;100.00
35989;BME280;22064;42.672;23.282;2023-04-08T04:48:57;94779.38;;;3.59;100.00
35989;BME280;22064;42.672;23.282;2023-04-08T04:51:23;94786.72;;;3.68;100.00
35989;BME280;22064;42.672;23.282;2023-04-08T04:53:49;94786.91;;;3.67;100.00
35989;BME280;22064;42.672;23.282;2023-04-08T04:56:15;94789.72;;;3.72;100.00
35989;BME280;22064;42.672;23.282;2023-04-08T04:58:41;94796.44;;;3.73;100.00
35989;BME280;22064;42.672;23.282;2023-04-08T05:01:07;94797.03;;;3.75;100.00
35989;BME280;22064;42.672;23.282;2023-04-08T05:03:33;94797.44;;;3.72;100.00
35989;BME280;22064;42.672;23.282;2023-04-08T05:05:59;94805.75;;;3.74;100.00
35989;BME280;22064;42.672;23.282;2023-04-08T05:08:25;94795.66;;;3.79;100.00
35989;BME280;22064;42.672;23.282;2023-04-08T05:10:51;94798.03;;;3.81;100.00
35989;BME280;22064;42.672;23.282;2023-04-08T05:13:17;94796.66;;;3.91;100.00
35989;BME280;22064;42.672;23.282;2023-04-08T05:15:43;94792.69;;;3.82;100.00
35989;BME280;22064;42.672;23.282;2023-04-08T05:18:12;94799.44;;;3.90;100.00
35989;BME280;22064;42.672;23.282;2023-04-08T05:20:38;94798.28;;;3.99;100.00
35989;BME280;22064;42.672;23.282;2023-04-08T05:23:04;94799.84;;;4.07;100.00
35989;BME280;22064;42.672;23.282;2023-04-08T05:25:32;94796.09;;;4.36;100.00
35989;BME280;22064;42.672;23.282;2023-04-08T05:27:57;94788.16;;;4.37;100.00
35989;BME280;22064;42.672;23.282;2023-04-08T05:30:23;94792.31;;;4.58;100.00
35989;BME280;22064;42.672;23.282;2023-04-08T05:32:49;94799.44;;;4.63;100.00
35989;BME280;22064;42.672;23.282;2023-04-08T05:35:15;94796.25;;;4.61;100.00
35989;BME280;22064;42.672;23.282;2023-04-08T05:37:41;94804.41;;;4.71;100.00
35989;BME280;22064;42.672;23.282;2023-04-08T05:40:07;94802.56;;;4.92;100.00
35989;BME280;22064;42.672;23.282;2023-04-08T05:42:33;94795.84;;;4.84;100.00
35989;BME280;22064;42.672;23.282;2023-04-08T05:45:00;94790.09;;;4.75;100.00
35989;BME280;22064;42.672;23.282;2023-04-08T05:47:26;94799.81;;;4.86;100.00
35989;BME280;22064;42.672;23.282;2023-04-08T05:49:52;94804.13;;;5.06;100.00
35989;BME280;22064;42.672;23.282;2023-04-08T05:52:18;94792.97;;;5.19;100.00
35989;BME280;22064;42.672;23.282;2023-04-08T05:54:44;94800.09;;;5.30;100.00
35989;BME280;22064;42.672;23.282;2023-04-08T05:57:11;94792.63;;;5.02;100.00
35989;BME280;22064;42.672;23.282;2023-04-08T05:59:37;94800.09;;;5.30;100.00
35989;BME280;22064;42.672;23.282;2023-04-08T06:02:03;94770.06;;;5.29;100.00
35989;BME280;22064;42.672;23.282;2023-04-08T06:04:29;94796.28;;;5.32;100.00
35989;BME280;22064;42.672;23.282;2023-04-08T06:06:55;94779.47;;;5.10;100.00
35989;BME280;22064;42.672;23.282;2023-04-08T06:09:25;94789.22;;;5.01;100.00
35989;BME280;22064;42.672;23.282;2023-04-08T06:11:51;94791.59;;;5.09;100.00
35989;BME280;22064;42.672;23.282;2023-04-08T06:14:17;94785.41;;;5.24;100.00
35989;BME280;22064;42.672;23.282;2023-04-08T06:16:45;94780.28;;;5.17;100.00
35989;BME280;22064;42.672;23.282;2023-04-08T06:19:11;94785.69;;;5.47;100.00
35989;BME280;22064;42.672;23.282;2023-04-08T06:21:37;94779.31;;;5.50;100.00
35989;BME280;22064;42.672;23.282;2023-04-08T06:24:03;94789.13;;;5.73;100.00
35989;BME280;22064;42.672;23.282;2023-04-08T06:26:28;94789.97;;;5.67;100.00
35989;BME280;22064;42.672;23.282;2023-04-08T06:28:54;94795.06;;;5.80;100.00
35989;BME280;22064;42.672;23.282;2023-04-08T06:31:20;94787.94;;;5.75;100.00
35989;BME280;22064;42.672;23.282;2023-04-08T06:33:46;94791.00;;;5.97;100.00
35989;BME280;22064;42.672;23.282;2023-04-08T06:36:12;94795.94;;;6.06;100.00
35989;BME280;22064;42.672;23.282;2023-04-08T06:38:38;94794.88;;;6.13;100.00
35989;BME280;22064;42.672;23.282;2023-04-08T06:41:05;94785.44;;;6.51;100.00
35989;BME280;22064;42.672;23.282;2023-04-08T06:43:32;94795.03;;;6.43;100.00
35989;BME280;22064;42.672;23.282;2023-04-08T06:45:58;94793.94;;;6.33;100.00
35989;BME280;22064;42.672;23.282;2023-04-08T06:48:24;94798.13;;;6.34;100.00
35989;BME280;22064;42.672;23.282;2023-04-08T06:50:55;94797.09;;;6.35;100.00
35989;BME280;22064;42.672;23.282;2023-04-08T06:53:22;94779.81;;;6.04;100.00
35989;BME280;22064;42.672;23.282;2023-04-08T06:55:51;94783.50;;;6.21;100.00
35989;BME280;22064;42.672;23.282;2023-04-08T06:58:17;94797.94;;;6.54;100.00
35989;BME280;22064;42.672;23.282;2023-04-08T07:00:43;94800.47;;;6.85;100.00
35989;BME280;22064;42.672;23.282;2023-04-08T07:03:09;94804.50;;;7.18;100.00
35989;BME280;22064;42.672;23.282;2023-04-08T07:05:36;94803.69;;;7.54;100.00
35989;BME280;22064;42.672;23.282;2023-04-08T07:08:04;94794.06;;;7.73;100.00
35989;BME280;22064;42.672;23.282;2023-04-08T07:10:30;94795.38;;;7.64;100.00
35989;BME280;22064;42.672;23.282;2023-04-08T07:12:56;94798.31;;;7.98;100.00
35989;BME280;22064;42.672;23.282;2023-04-08T07:15:22;94801.38;;;8.06;100.00
35989;BME280;22064;42.672;23.282;2023-04-08T07:17:48;94794.88;;;8.27;100.00
35989;BME280;22064;42.672;23.282;2023-04-08T07:20:14;94799.50;;;8.37;100.00
35989;BME280;22064;42.672;23.282;2023-04-08T07:22:40;94809.19;;;8.60;100.00
35989;BME280;22064;42.672;23.282;2023-04-08T07:25:06;94805.66;;;8.78;100.00
35989;BME280;22064;42.672;23.282;2023-04-08T07:27:33;94815.47;;;8.88;100.00
35989;BME280;22064;42.672;23.282;2023-04-08T07:29:59;94812.09;;;9.11;100.00
35989;BME280;22064;42.672;23.282;2023-04-08T07:32:26;94809.84;;;9.02;100.00
35989;BME280;22064;42.672;23.282;2023-04-08T07:34:52;94813.09;;;9.21;100.00
35989;BME280;22064;42.672;23.282;2023-04-08T07:37:18;94815.50;;;9.52;98.76
35989;BME280;22064;42.672;23.282;2023-04-08T07:39:44;94816.03;;;9.65;92.75
35989;BME280;22064;42.672;23.282;2023-04-08T07:42:10;94820.72;;;9.52;94.58
35989;BME280;22064;42.672;23.282;2023-04-08T07:44:36;94823.88;;;9.54;94.12
35989;BME280;22064;42.672;23.282;2023-04-08T07:47:03;94821.31;;;9.82;91.18
35989;BME280;22064;42.672;23.282;2023-04-08T07:49:29;94828.41;;;9.87;90.40
35989;BME280;22064;42.672;23.282;2023-04-08T07:51:55;94824.31;;;9.91;88.53
35989;BME280;22064;42.672;23.282;2023-04-08T07:54:22;94827.28;;;9.83;89.87
35989;BME280;22064;42.672;23.282;2023-04-08T07:56:47;94826.50;;;9.82;91.54
35989;BME280;22064;42.672;23.282;2023-04-08T07:59:13;94833.34;;;10.00;88.87
35989;BME280;22064;42.672;23.282;2023-04-08T08:01:39;94843.22;;;10.44;84.33
35989;BME280;22064;42.672;23.282;2023-04-08T08:04:05;94840.59;;;10.15;84.27
35989;BME280;22064;42.672;23.282;2023-04-08T08:06:32;94845.81;;;10.44;80.11
35989;BME280;22064;42.672;23.282;2023-04-08T08:08:58;94838.66;;;10.51;78.61
35989;BME280;22064;42.672;23.282;2023-04-08T08:11:25;94844.16;;;10.54;78.21
35989;BME280;22064;42.672;23.282;2023-04-08T08:13:54;94832.19;;;10.25;81.90
35989;BME280;22064;42.672;23.282;2023-04-08T08:16:20;94835.88;;;10.12;85.95
35989;BME280;22064;42.672;23.282;2023-04-08T08:18:46;94834.78;;;10.25;86.29
35989;BME280;22064;42.672;23.282;2023-04-08T08:21:12;94834.63;;;10.60;84.36
35989;BME280;22064;42.672;23.282;2023-04-08T08:23:38;94840.34;;;10.96;80.89
35989;BME280;22064;42.672;23.282;2023-04-08T08:26:06;94835.06;;;11.07;76.84
35989;BME280;22064;42.672;23.282;2023-04-08T08:28:34;94845.38;;;11.19;76.78
35989;BME280;22064;42.672;23.282;2023-04-08T08:31:00;94836.81;;;11.41;72.90
35989;BME280;22064;42.672;23.282;2023-04-08T08:33:28;94840.63;;;11.55;71.71
35989;BME280;22064;42.672;23.282;2023-04-08T08:35:54;94843.13;;;11.67;70.66
35989;BME280;22064;42.672;23.282;2023-04-08T08:38:20;94843.19;;;11.72;68.99
35989;BME280;22064;42.672;23.282;2023-04-08T08:40:55;94841.66;;;11.54;70.26
35989;BME280;22064;42.672;23.282;2023-04-08T08:43:23;94830.25;;;11.38;73.68
35989;BME280;22064;42.672;23.282;2023-04-08T08:45:49;94839.53;;;11.51;73.45
35989;BME280;22064;42.672;23.282;2023-04-08T08:48:15;94836.63;;;11.47;73.73
35989;BME280;22064;42.672;23.282;2023-04-08T08:50:42;94836.94;;;11.51;73.26
35989;BME280;22064;42.672;23.282;2023-04-08T08:53:08;94833.94;;;11.42;75.09
35989;BME280;22064;42.672;23.282;2023-04-08T08:55:34;94840.56;;;11.50;75.12
35989;BME280;22064;42.672;23.282;2023-04-08T08:58:01;94834.69;;;11.38;73.59
35989;BME280;22064;42.672;23.282;2023-04-08T09:00:33;94844.63;;;11.41;73.06
35989;BME280;22064;42.672;23.282;2023-04-08T09:03:22;94840.22;;;11.63;74.43
35989;BME280;22064;42.672;23.282;2023-04-08T09:06:00;94841.28;;;11.67;75.71
35989;BME280;22064;42.672;23.282;2023-04-08T09:08:36;94842.16;;;11.51;75.57
35989;BME280;22064;42.672;23.282;2023-04-08T09:13:39;94837.63;;;11.85;72.84
35989;BME280;22064;42.672;23.282;2023-04-08T09:16:07;94840.75;;;12.09;70.09
35989;BME280;22064;42.672;23.282;2023-04-08T09:18:34;94835.34;;;12.48;67.89
35989;BME280;22064;42.672;23.282;2023-04-08T09:21:02;94827.06;;;12.56;64.15
35989;BME280;22064;42.672;23.282;2023-04-08T09:23:38;94832.69;;;12.75;63.45
35989;BME280;22064;42.672;23.282;2023-04-08T09:26:08;94831.94;;;12.80;61.50
35989;BME280;22064;42.672;23.282;2023-04-08T09:28:35;94831.44;;;12.83;60.35
35989;BME280;22064;42.672;23.282;2023-04-08T09:31:22;94825.28;;;12.62;62.17
35989;BME280;22064;42.672;23.282;2023-04-08T09:33:51;94818.44;;;12.56;61.57
35989;BME280;22064;42.672;23.282;2023-04-08T09:36:18;94819.97;;;12.52;62.20
35989;BME280;22064;42.672;23.282;2023-04-08T09:38:44;94817.75;;;12.65;62.31
35989;BME280;22064;42.672;23.282;2023-04-08T09:41:15;94816.47;;;12.68;61.22
35989;BME280;22064;42.672;23.282;2023-04-08T09:43:49;94812.47;;;12.60;61.26
35989;BME280;22064;42.672;23.282;2023-04-08T09:46:18;94811.78;;;12.38;62.07
35989;BME280;22064;42.672;23.282;2023-04-08T09:48:55;94803.78;;;12.50;62.66
35989;BME280;22064;42.672;23.282;2023-04-08T09:51:23;94806.41;;;12.92;60.44
35989;BME280;22064;42.672;23.282;2023-04-08T09:54:01;94812.00;;;12.68;59.40
35989;BME280;22064;42.672;23.282;2023-04-08T09:56:36;94814.16;;;12.44;61.10
35989;BME280;22064;42.672;23.282;2023-04-08T09:59:11;94809.41;;;12.68;60.28
35989;BME280;22064;42.672;23.282;2023-04-08T10:01:45;94800.28;;;12.76;60.02
35989;BME280;22064;42.672;23.282;2023-04-08T10:04:14;94797.56;;;12.56;60.09
35989;BME280;22064;42.672;23.282;2023-04-08T10:06:53;94797.75;;;12.49;59.78
35989;BME280;22064;42.672;23.282;2023-04-08T10:09:22;94813.09;;;12.13;61.60
35989;BME280;22064;42.672;23.282;2023-04-08T10:11:48;94797.94;;;12.10;63.07
35989;BME280;22064;42.672;23.282;2023-04-08T10:14:15;94801.53;;;12.04;64.26
35989;BME280;22064;42.672;23.282;2023-04-08T10:16:41;94791.25;;;12.19;64.53
35989;BME280;22064;42.672;23.282;2023-04-08T10:19:35;94798.63;;;12.28;62.75
35989;BME280;22064;42.672;23.282;2023-04-08T10:22:03;94790.06;;;12.05;65.81
35989;BME280;22064;42.672;23.282;2023-04-08T10:24:29;94798.50;;;12.12;66.32
35989;BME280;22064;42.672;23.282;2023-04-08T10:26:55;94791.31;;;11.97;66.73
35989;BME280;22064;42.672;23.282;2023-04-08T10:31:53;94794.06;;;12.13;66.95
35989;BME280;22064;42.672;23.282;2023-04-08T10:34:21;94794.56;;;12.42;64.20
35989;BME280;22064;42.672;23.282;2023-04-08T10:36:49;94775.56;;;12.52;63.36
35989;BME280;22064;42.672;23.282;2023-04-08T10:39:15;94781.41;;;12.64;62.50
35989;BME280;22064;42.672;23.282;2023-04-08T10:41:46;94777.81;;;12.38;62.52
35989;BME280;22064;42.672;23.282;2023-04-08T10:46:46;94773.22;;;12.50;64.33
35989;BME280;22064;42.672;23.282;2023-04-08T10:49:13;94760.28;;;12.70;64.80
35989;BME280;22064;42.672;23.282;2023-04-08T10:51:39;94761.00;;;12.61;62.02
35989;BME280;22064;42.672;23.282;2023-04-08T10:54:08;94747.06;;;12.45;62.68
35989;BME280;22064;42.672;23.282;2023-04-08T10:56:35;94760.16;;;12.50;64.39
35989;BME280;22064;42.672;23.282;2023-04-08T10:59:02;94745.19;;;12.78;63.21
35989;BME280;22064;42.672;23.282;2023-04-08T11:01:37;94752.22;;;12.72;61.92
35989;BME280;22064;42.672;23.282;2023-04-08T11:04:10;94751.81;;;12.53;61.62
35989;BME280;22064;42.672;23.282;2023-04-08T11:06:37;94741.97;;;12.65;60.58
35989;BME280;22064;42.672;23.282;2023-04-08T11:09:03;94744.03;;;12.63;60.88
35989;BME280;22064;42.672;23.282;2023-04-08T11:11:30;94746.22;;;12.77;59.58
35989;BME280;22064;42.672;23.282;2023-04-08T11:13:56;94744.78;;;12.54;59.62
35989;BME280;22064;42.672;23.282;2023-04-08T11:16:22;94733.81;;;12.57;60.25
35989;BME280;22064;42.672;23.282;2023-04-08T11:18:50;94741.53;;;12.79;60.10
35989;BME280;22064;42.672;23.282;2023-04-08T11:21:16;94737.56;;;13.24;58.69
35989;BME280;22064;42.672;23.282;2023-04-08T11:23:42;94720.66;;;13.36;57.72
35989;BME280;22064;42.672;23.282;2023-04-08T11:26:09;94718.34;;;13.60;57.82
35989;BME280;22064;42.672;23.282;2023-04-08T11:28:35;94730.19;;;13.83;55.84
35989;BME280;22064;42.672;23.282;2023-04-08T11:31:02;94710.03;;;14.04;54.60
35989;BME280;22064;42.672;23.282;2023-04-08T11:33:33;94715.31;;;14.15;53.47
35989;BME280;22064;42.672;23.282;2023-04-08T11:36:00;94715.56;;;14.18;53.14
35989;BME280;22064;42.672;23.282;2023-04-08T11:38:28;94710.59;;;14.52;52.00
35989;BME280;22064;42.672;23.282;2023-04-08T11:40:58;94710.06;;;14.25;51.16
35989;BME280;22064;42.672;23.282;2023-04-08T11:43:24;94691.44;;;14.42;50.78
35989;BME280;22064;42.672;23.282;2023-04-08T11:45:50;94702.69;;;14.42;50.43
35989;BME280;22064;42.672;23.282;2023-04-08T11:48:17;94706.34;;;14.77;49.55
35989;BME280;22064;42.672;23.282;2023-04-08T11:50:43;94694.28;;;14.76;48.00
35989;BME280;22064;42.672;23.282;2023-04-08T11:53:17;94700.09;;;14.63;47.87
35989;BME280;22064;42.672;23.282;2023-04-08T11:55:47;94695.13;;;14.00;48.43
35989;BME280;22064;42.672;23.282;2023-04-08T11:58:13;94696.16;;;13.89;49.72
35989;BME280;22064;42.672;23.282;2023-04-08T12:00:40;94697.41;;;13.50;49.88
35989;BME280;22064;42.672;23.282;2023-04-08T12:03:07;94696.53;;;13.24;50.73
35989;BME280;22064;42.672;23.282;2023-04-08T12:05:33;94686.78;;;13.04;50.41
35989;BME280;22064;42.672;23.282;2023-04-08T12:07:59;94680.34;;;12.69;51.30
35989;BME280;22064;42.672;23.282;2023-04-08T12:10:25;94674.28;;;12.59;52.63
35989;BME280;22064;42.672;23.282;2023-04-08T12:12:52;94671.91;;;12.57;52.84
35989;BME280;22064;42.672;23.282;2023-04-08T12:15:18;94680.72;;;12.46;53.60
35989;BME280;22064;42.672;23.282;2023-04-08T12:17:44;94687.03;;;12.50;54.23
35989;BME280;22064;42.672;23.282;2023-04-08T12:20:11;94677.13;;;12.57;53.97
35989;BME280;22064;42.672;23.282;2023-04-08T12:22:37;94678.91;;;12.46;54.58
35989;BME280;22064;42.672;23.282;2023-04-08T12:25:03;94669.38;;;12.73;54.24
35989;BME280;22064;42.672;23.282;2023-04-08T12:27:30;94670.00;;;12.95;53.06
35989;BME280;22064;42.672;23.282;2023-04-08T12:29:58;94666.34;;;12.91;52.73
35989;BME280;22064;42.672;23.282;2023-04-08T12:32:25;94661.50;;;12.67;53.72
35989;BME280;22064;42.672;23.282;2023-04-08T12:34:51;94656.25;;;12.57;55.08
35989;BME280;22064;42.672;23.282;2023-04-08T12:37:17;94653.91;;;12.56;55.27
35989;BME280;22064;42.672;23.282;2023-04-08T12:39:43;94656.06;;;12.27;56.25
35989;BME280;22064;42.672;23.282;2023-04-08T12:42:09;94629.00;;;12.00;57.09
35989;BME280;22064;42.672;23.282;2023-04-08T12:44:35;94658.16;;;12.24;57.71
35989;BME280;22064;42.672;23.282;2023-04-08T12:47:01;94663.38;;;12.24;58.50
35989;BME280;22064;42.672;23.282;2023-04-08T12:49:27;94662.78;;;12.12;58.44
35989;BME280;22064;42.672;23.282;2023-04-08T12:51:52;94668.59;;;11.87;57.64
35989;BME280;22064;42.672;23.282;2023-04-08T12:54:19;94674.66;;;11.98;57.76
35989;BME280;22064;42.672;23.282;2023-04-08T12:56:46;94690.34;;;11.76;58.39
35989;BME280;22064;42.672;23.282;2023-04-08T12:59:14;94700.50;;;11.72;59.75
35989;BME280;22064;42.672;23.282;2023-04-08T13:01:40;94698.41;;;11.96;60.54
35989;BME280;22064;42.672;23.282;2023-04-08T13:04:06;94689.94;;;12.16;64.38